createdAt,value
2022-11-10T00:00:50.230Z,56.28
2022-11-10T00:03:38.417Z,56.31
2022-11-10T00:06:24.482Z,56.55
2022-11-10T00:09:10.653Z,55.80
2022-11-10T00:11:56.615Z,56.35
2022-11-10T00:15:01.359Z,56.61
2022-11-10T00:17:47.283Z,56.69
2022-11-10T00:20:33.215Z,56.54
2022-11-10T00:23:19.776Z,56.03
2022-11-10T00:26:11.838Z,56.08
2022-11-10T00:28:57.687Z,56.21
2022-11-10T00:31:44.796Z,56.09
2022-11-10T00:34:30.679Z,56.36
2022-11-10T00:37:16.844Z,56.63
2022-11-10T00:40:02.857Z,56.60
2022-11-10T00:42:51.315Z,56.26
2022-11-10T00:45:37.528Z,56.13
2022-11-10T00:48:23.621Z,56.30
2022-11-10T00:51:22.438Z,56.83
2022-11-10T00:54:09.104Z,56.09
2022-11-10T00:56:54.817Z,56.48
2022-11-10T00:59:41.018Z,55.96
2022-11-10T01:02:28.361Z,55.98
2022-11-10T01:05:14.228Z,56.24
2022-11-10T01:07:59.825Z,56.48
2022-11-10T01:10:45.860Z,56.21
2022-11-10T01:13:32.423Z,56.71
2022-11-10T01:16:24.106Z,56.43
2022-11-10T01:19:09.980Z,56.36
2022-11-10T01:21:56.203Z,56.07
2022-11-10T01:24:42.241Z,56.39
2022-11-10T01:27:28.549Z,56.08
2022-11-10T01:30:14.426Z,56.05
2022-11-10T01:33:00.388Z,56.49
2022-11-10T01:35:46.392Z,56.41
2022-11-10T01:38:35.229Z,56.62
2022-11-10T01:41:21.443Z,56.22
2022-11-10T01:44:24.929Z,56.37
2022-11-10T01:47:10.902Z,56.55
2022-11-10T01:49:56.906Z,56.55
2022-11-10T01:52:44.623Z,56.35
2022-11-10T01:55:32.375Z,56.75
2022-11-10T01:58:22.001Z,56.19
2022-11-10T02:01:09.002Z,56.61
2022-11-10T02:04:00.609Z,56.47
2022-11-10T02:06:48.943Z,56.32
2022-11-10T02:09:35.092Z,56.47
2022-11-10T02:12:37.138Z,56.78
2022-11-10T02:15:24.610Z,56.47
2022-11-10T02:18:11.117Z,56.79
2022-11-10T02:20:57.131Z,56.55
2022-11-10T02:23:54.026Z,56.59
2022-11-10T02:26:49.555Z,56.63
2022-11-10T02:29:35.429Z,56.37
2022-11-10T02:32:22.607Z,56.56
2022-11-10T02:35:09.986Z,56.50
2022-11-10T02:37:56.895Z,56.41
2022-11-10T02:40:43.059Z,56.52
2022-11-10T02:43:30.246Z,56.60
2022-11-10T02:46:16.008Z,56.48
2022-11-10T02:49:02.154Z,56.23
2022-11-10T02:51:47.815Z,56.48
2022-11-10T02:54:38.080Z,56.59
2022-11-10T02:57:24.127Z,56.83
2022-11-10T03:00:10.877Z,56.31
2022-11-10T03:02:58.589Z,56.59
2022-11-10T03:05:44.756Z,56.62
2022-11-10T03:08:32.688Z,56.55
2022-11-10T03:11:18.612Z,56.42
2022-11-10T03:14:10.039Z,56.50
2022-11-10T03:16:55.962Z,56.91
2022-11-10T03:19:43.199Z,56.42
2022-11-10T03:22:29.019Z,56.35
2022-11-10T03:25:15.258Z,56.97
2022-11-10T03:28:01.261Z,56.52
2022-11-10T03:30:46.984Z,56.45
2022-11-10T03:33:33.005Z,56.60
2022-11-10T03:36:18.925Z,56.32
2022-11-10T03:39:06.042Z,56.86
2022-11-10T03:41:53.110Z,56.53
2022-11-10T03:44:49.305Z,56.41
2022-11-10T03:47:35.514Z,56.75
2022-11-10T03:50:21.522Z,56.49
2022-11-10T03:53:07.312Z,56.48
2022-11-10T03:55:53.412Z,56.58
2022-11-10T03:58:39.564Z,56.70
2022-11-10T04:01:25.864Z,56.72
2022-11-10T04:04:32.999Z,56.61
2022-11-10T04:07:37.899Z,57.03
2022-11-10T04:10:23.632Z,56.47
2022-11-10T04:13:28.566Z,56.77
2022-11-10T04:16:14.156Z,56.58
2022-11-10T04:19:01.056Z,56.45
2022-11-10T04:21:47.406Z,57.14
2022-11-10T04:24:33.207Z,56.80
2022-11-10T04:27:19.333Z,56.68
2022-11-10T04:30:06.145Z,57.08
2022-11-10T04:32:54.109Z,56.64
2022-11-10T04:35:40.034Z,56.68
2022-11-10T04:38:26.338Z,57.06
2022-11-10T04:41:12.608Z,56.52
2022-11-10T04:43:59.518Z,56.69
2022-11-10T04:46:45.913Z,56.81
2022-11-10T04:49:31.672Z,56.70
2022-11-10T04:52:17.611Z,56.63
2022-11-10T04:55:03.873Z,57.06
2022-11-10T04:57:49.998Z,56.60
2022-11-10T05:00:36.508Z,57.03
2022-11-10T05:03:23.063Z,57.08
2022-11-10T05:06:09.909Z,56.86
2022-11-10T05:08:55.758Z,56.42
2022-11-10T05:11:41.735Z,56.80
2022-11-10T05:14:27.591Z,56.76
2022-11-10T05:17:13.767Z,56.67
2022-11-10T05:19:59.659Z,56.69
2022-11-10T05:22:49.113Z,56.75
2022-11-10T05:25:38.172Z,56.88
2022-11-10T05:28:24.020Z,56.63
2022-11-10T05:31:11.008Z,57.18
2022-11-10T05:33:58.197Z,56.59
2022-11-10T05:36:44.326Z,56.97
2022-11-10T05:39:30.102Z,56.92
2022-11-10T05:42:16.339Z,56.43
2022-11-10T05:45:02.434Z,57.19
2022-11-10T05:47:48.895Z,57.19
2022-11-10T05:50:35.056Z,56.74
2022-11-10T05:53:20.845Z,56.86
2022-11-10T05:56:07.776Z,56.80
2022-11-10T05:58:53.809Z,56.95
2022-11-10T06:01:40.504Z,57.21
2022-11-10T06:04:26.518Z,56.82
2022-11-10T06:07:12.523Z,56.96
2022-11-10T06:09:58.636Z,56.64
2022-11-10T06:12:46.733Z,56.59
2022-11-10T06:15:33.400Z,57.10
2022-11-10T06:18:19.166Z,57.09
2022-11-10T06:21:05.362Z,57.20
2022-11-10T06:23:51.115Z,57.05
2022-11-10T06:26:37.279Z,56.77
2022-11-10T06:29:26.778Z,57.10
2022-11-10T06:32:13.065Z,57.36
2022-11-10T06:35:00.664Z,56.92
2022-11-10T06:37:47.277Z,56.87
2022-11-10T06:40:33.537Z,56.99
2022-11-10T06:43:19.472Z,57.28
2022-11-10T06:46:05.629Z,57.14
2022-11-10T06:48:51.836Z,56.91
2022-11-10T06:51:37.857Z,56.92
2022-11-10T06:54:23.946Z,57.37
2022-11-10T06:57:09.889Z,57.14
2022-11-10T06:59:56.309Z,57.08
2022-11-10T07:02:42.415Z,56.93
2022-11-10T07:05:29.731Z,57.09
2022-11-10T07:08:16.570Z,57.16
2022-11-10T07:11:02.462Z,56.99
2022-11-10T07:13:48.382Z,56.87
2022-11-10T07:16:34.495Z,57.28
2022-11-10T07:19:20.539Z,57.34
2022-11-10T07:22:11.219Z,57.19
2022-11-10T07:24:59.390Z,57.11
2022-11-10T07:27:45.695Z,57.28
2022-11-10T07:30:33.444Z,57.42
2022-11-10T07:33:19.837Z,57.28
2022-11-10T07:36:07.349Z,57.18
2022-11-10T07:39:02.559Z,57.17
2022-11-10T07:41:58.029Z,57.35
2022-11-10T07:44:43.886Z,57.05
2022-11-10T07:47:34.916Z,57.14
2022-11-10T07:50:21.114Z,57.47
2022-11-10T07:53:10.053Z,57.27
2022-11-10T07:55:58.486Z,57.00
2022-11-10T07:58:44.246Z,57.09
2022-11-10T08:01:30.393Z,56.98
2022-11-10T08:04:16.322Z,57.01
2022-11-10T08:07:02.253Z,57.09
2022-11-10T08:09:51.096Z,56.97
2022-11-10T08:12:37.164Z,57.07
2022-11-10T08:15:24.441Z,57.09
2022-11-10T08:18:23.957Z,57.30
2022-11-10T08:21:10.090Z,57.15
2022-11-10T08:23:56.339Z,57.15
2022-11-10T08:26:42.337Z,57.06
2022-11-10T08:29:30.162Z,57.13
2022-11-10T08:32:16.470Z,57.18
2022-11-10T08:35:03.725Z,57.14
2022-11-10T08:37:50.826Z,57.32
2022-11-10T08:40:37.220Z,57.18
2022-11-10T08:43:23.717Z,57.35
2022-11-10T08:46:10.309Z,57.28
2022-11-10T08:48:56.457Z,57.20
2022-11-10T08:51:44.292Z,57.28
2022-11-10T08:54:30.376Z,57.37
2022-11-10T08:57:16.518Z,57.31
2022-11-10T09:00:02.424Z,57.33
2022-11-10T09:02:48.317Z,57.29
2022-11-10T09:05:36.037Z,57.28
2022-11-10T09:08:22.767Z,57.24
2022-11-10T09:11:10.521Z,57.19
2022-11-10T09:13:59.814Z,57.40
2022-11-10T09:16:45.557Z,57.26
2022-11-10T09:19:35.796Z,57.24
2022-11-10T09:22:21.832Z,57.23
2022-11-10T09:25:08.227Z,57.58
2022-11-10T09:28:14.023Z,57.20
2022-11-10T09:31:00.440Z,57.21
2022-11-10T09:33:46.324Z,57.08
2022-11-10T09:36:32.204Z,57.17
2022-11-10T09:39:21.353Z,57.34
2022-11-10T09:42:29.939Z,57.30
2022-11-10T09:45:25.254Z,57.54
2022-11-10T09:48:27.993Z,57.33
2022-11-10T09:51:27.047Z,57.23
2022-11-10T09:54:28.150Z,57.15
2022-11-10T09:57:16.991Z,57.08
2022-11-10T10:00:04.702Z,56.90
2022-11-10T10:03:00.935Z,57.09
2022-11-10T10:06:30.523Z,57.01
2022-11-10T10:09:47.440Z,56.88
2022-11-10T10:12:46.823Z,57.01
2022-11-10T10:15:50.482Z,56.89
2022-11-10T10:18:51.667Z,57.04
2022-11-10T10:21:40.115Z,56.90
2022-11-10T10:24:32.512Z,56.78
2022-11-10T10:27:26.118Z,56.67
2022-11-10T10:30:18.336Z,56.69
2022-11-10T10:33:16.644Z,56.89
2022-11-10T10:36:08.884Z,56.90
2022-11-10T10:38:57.985Z,56.86
2022-11-10T10:41:47.505Z,56.86
2022-11-10T10:44:33.385Z,56.68
2022-11-10T10:47:36.686Z,56.79
2022-11-10T10:50:25.771Z,56.77
2022-11-10T10:53:11.853Z,56.67
2022-11-10T10:56:01.051Z,56.82
2022-11-10T10:58:55.487Z,56.74
2022-11-10T11:01:43.727Z,56.73
2022-11-10T11:04:37.681Z,56.96
2022-11-10T11:07:24.926Z,56.60
2022-11-10T11:10:19.914Z,56.95
2022-11-10T11:13:22.727Z,57.02
2022-11-10T11:16:09.890Z,56.76
2022-11-10T11:18:56.228Z,56.92
2022-11-10T11:22:04.278Z,56.86
2022-11-10T11:25:30.061Z,57.21
2022-11-10T11:28:45.230Z,57.22
2022-11-10T11:32:12.474Z,57.77
2022-11-10T11:35:16.547Z,57.77
2022-11-10T11:38:14.001Z,57.63
2022-11-10T11:41:18.472Z,57.31
2022-11-10T11:44:16.403Z,56.94
2022-11-10T11:47:36.990Z,56.42
2022-11-10T11:50:30.054Z,56.37
2022-11-10T11:53:52.430Z,55.79
2022-11-10T11:56:41.998Z,55.90
2022-11-10T11:59:50.504Z,55.65
2022-11-10T12:03:02.199Z,54.74
2022-11-10T12:06:00.366Z,55.04
2022-11-10T12:09:10.245Z,54.14
2022-11-10T12:12:15.938Z,54.24
2022-11-10T12:15:09.745Z,54.09
2022-11-10T12:17:55.406Z,52.37
2022-11-10T12:20:47.116Z,53.69
2022-11-10T12:23:36.077Z,53.51
2022-11-10T12:26:45.644Z,52.45
2022-11-10T12:30:03.728Z,51.91
2022-11-10T12:33:15.184Z,51.70
2022-11-10T12:36:03.896Z,52.49
2022-11-10T12:39:18.142Z,51.54
2022-11-10T12:42:05.475Z,51.80
2022-11-10T12:45:06.369Z,50.91
2022-11-10T12:47:53.367Z,50.95
2022-11-10T12:51:23.712Z,48.82
2022-11-10T12:54:16.691Z,49.97
2022-11-10T12:57:07.280Z,49.42
2022-11-10T12:59:59.490Z,49.24
2022-11-10T13:02:46.990Z,48.79
2022-11-10T13:05:40.945Z,48.13
2022-11-10T13:08:41.732Z,47.47
2022-11-10T13:12:18.581Z,47.03
2022-11-10T13:15:37.834Z,46.46
2022-11-10T13:18:31.078Z,47.01
2022-11-10T13:21:50.710Z,46.03
2022-11-10T13:24:42.519Z,46.25
2022-11-10T13:27:38.034Z,46.07
2022-11-10T13:30:45.571Z,45.31
2022-11-10T13:33:36.573Z,45.73
2022-11-10T13:36:50.410Z,45.09
2022-11-10T13:39:36.384Z,45.88
2022-11-10T13:42:26.417Z,45.72
2022-11-10T13:50:32.866Z,44.33
2022-11-10T13:53:57.749Z,44.17
2022-11-10T13:57:30.417Z,44.02
2022-11-10T14:00:19.974Z,44.89
2022-11-10T14:03:08.015Z,44.51
2022-11-10T14:06:13.866Z,43.85
2022-11-10T14:09:23.222Z,43.54
2022-11-10T14:12:28.778Z,44.06
2022-11-10T14:15:18.266Z,44.38
2022-11-10T14:18:23.637Z,43.93
2022-11-10T14:21:12.707Z,44.54
2022-11-10T14:24:29.650Z,44.08
2022-11-10T14:27:22.583Z,44.71
2022-11-10T14:30:30.069Z,45.03
2022-11-10T14:33:21.565Z,44.81
2022-11-10T14:36:08.996Z,44.99
2022-11-10T14:39:13.975Z,44.73
2022-11-10T14:42:02.795Z,45.17
2022-11-10T14:45:08.248Z,45.29
2022-11-10T14:47:56.157Z,45.38
2022-11-10T14:50:44.526Z,45.47
2022-11-10T14:53:33.722Z,45.47
2022-11-10T14:56:28.522Z,45.61
2022-11-10T14:59:15.638Z,45.74
2022-11-10T15:02:02.169Z,45.82
2022-11-10T15:04:51.332Z,45.95
2022-11-10T15:07:38.413Z,46.05
2022-11-10T15:10:27.157Z,46.10
2022-11-10T15:13:13.026Z,46.01
2022-11-10T15:16:27.866Z,46.06
2022-11-10T15:19:32.796Z,46.39
2022-11-10T15:22:21.781Z,46.49
2022-11-10T15:25:16.265Z,46.69
2022-11-10T15:28:05.338Z,46.85
2022-11-10T15:30:55.299Z,46.77
2022-11-10T15:33:46.618Z,46.95
2022-11-10T15:36:39.605Z,47.05
2022-11-10T15:39:27.193Z,46.78
2022-11-10T15:42:22.480Z,47.32
2022-11-10T15:45:08.830Z,47.25
2022-11-10T15:47:55.588Z,47.17
2022-11-10T15:50:43.005Z,47.15
2022-11-10T15:53:34.704Z,47.47
2022-11-10T15:56:22.411Z,47.45
2022-11-10T15:59:10.346Z,47.45
2022-11-10T16:01:57.272Z,47.19
2022-11-10T16:04:43.243Z,47.77
2022-11-10T16:07:30.164Z,47.47
2022-11-10T16:10:16.134Z,47.91
2022-11-10T16:13:02.447Z,47.73
2022-11-10T16:15:48.628Z,47.96
2022-11-10T16:18:34.929Z,47.70
2022-11-10T16:21:25.509Z,47.75
2022-11-10T16:24:11.477Z,47.95
2022-11-10T16:26:58.439Z,48.14
2022-11-10T16:29:44.390Z,47.99
2022-11-10T16:32:31.566Z,48.06
2022-11-10T16:35:17.614Z,48.09
2022-11-10T16:38:22.667Z,48.34
2022-11-10T16:41:11.771Z,48.49
2022-11-10T16:43:57.889Z,48.38
2022-11-10T16:46:45.880Z,48.61
2022-11-10T16:49:35.055Z,48.61
2022-11-10T16:52:22.612Z,48.66
2022-11-10T16:55:12.405Z,48.67
2022-11-10T16:57:59.448Z,48.50
2022-11-10T17:00:47.439Z,48.96
2022-11-10T17:03:43.483Z,48.65
2022-11-10T17:06:30.131Z,48.79
2022-11-10T17:09:22.882Z,49.06
2022-11-10T17:12:12.647Z,49.00
2022-11-10T17:15:00.670Z,49.10
2022-11-10T17:17:50.314Z,49.10
2022-11-10T17:20:39.545Z,49.08
2022-11-10T17:23:26.456Z,49.15
2022-11-10T17:26:15.210Z,49.00
2022-11-10T17:29:01.940Z,49.14
2022-11-10T17:31:50.222Z,49.19
2022-11-10T17:34:37.472Z,49.33
2022-11-10T17:37:24.388Z,49.18
2022-11-10T17:40:24.500Z,49.38
2022-11-10T17:43:12.373Z,49.08
2022-11-10T17:45:58.337Z,49.52
2022-11-10T17:48:44.440Z,49.60
2022-11-10T17:51:32.479Z,49.68
2022-11-10T17:54:18.582Z,49.63
2022-11-10T17:57:04.716Z,49.89
2022-11-10T17:59:53.701Z,49.94
2022-11-10T18:02:40.004Z,50.04
2022-11-10T18:05:26.375Z,50.07
2022-11-10T18:08:14.761Z,49.91
2022-11-10T18:11:01.318Z,50.06
2022-11-10T18:13:47.556Z,50.27
2022-11-10T18:16:35.300Z,50.08
2022-11-10T18:19:21.382Z,50.19
2022-11-10T18:22:07.678Z,50.19
2022-11-10T18:24:53.445Z,50.21
2022-11-10T18:27:39.774Z,50.20
2022-11-10T18:30:26.724Z,50.20
2022-11-10T18:33:14.697Z,50.16
2022-11-10T18:36:01.085Z,50.27
2022-11-10T18:38:47.326Z,50.42
2022-11-10T18:41:52.453Z,50.34
2022-11-10T18:44:38.733Z,50.55
2022-11-10T18:47:25.092Z,50.34
2022-11-10T18:50:11.201Z,50.23
2022-11-10T18:52:57.762Z,50.54
2022-11-10T18:55:53.603Z,50.51
2022-11-10T18:58:40.251Z,50.40
2022-11-10T19:01:26.984Z,50.82
2022-11-10T19:04:13.474Z,50.71
2022-11-10T19:07:01.080Z,50.47
2022-11-10T19:09:47.392Z,50.83
2022-11-10T19:12:33.530Z,50.68
2022-11-10T19:15:19.597Z,50.93
2022-11-10T19:18:05.703Z,50.81
2022-11-10T19:20:51.593Z,50.96
2022-11-10T19:23:38.405Z,50.68
2022-11-10T19:26:26.063Z,50.77
2022-11-10T19:29:12.175Z,50.87
2022-11-10T19:31:58.392Z,50.95
2022-11-10T19:34:44.856Z,50.85
2022-11-10T19:37:34.860Z,50.98
2022-11-10T19:40:21.993Z,50.85
2022-11-10T19:43:08.335Z,50.97
2022-11-10T19:45:54.577Z,51.13
2022-11-10T19:48:41.005Z,51.08
2022-11-10T19:51:28.695Z,51.31
2022-11-10T19:54:15.048Z,50.86
2022-11-10T19:57:01.355Z,51.29
2022-11-10T19:59:47.459Z,51.19
2022-11-10T20:02:33.429Z,51.42
2022-11-10T20:05:20.649Z,51.03
2022-11-10T20:08:16.447Z,51.20
2022-11-10T20:11:09.550Z,51.15
2022-11-10T20:13:57.888Z,51.11
2022-11-10T20:16:43.956Z,51.50
2022-11-10T20:19:31.331Z,51.50
2022-11-10T20:22:17.236Z,51.20
2022-11-10T20:25:03.633Z,51.58
2022-11-10T20:27:49.871Z,51.41
2022-11-10T20:30:38.622Z,51.54
2022-11-10T20:33:24.921Z,51.56
2022-11-10T20:36:20.410Z,51.28
2022-11-10T20:39:07.583Z,51.49
2022-11-10T20:41:53.656Z,51.42
2022-11-10T20:44:40.813Z,51.47
2022-11-10T20:47:28.440Z,51.55
2022-11-10T20:50:17.143Z,51.60
2022-11-10T20:53:06.669Z,51.49
2022-11-10T20:55:57.968Z,51.93
2022-11-10T20:58:45.205Z,51.71
2022-11-10T21:01:32.639Z,51.87
2022-11-10T21:04:19.101Z,51.79
2022-11-10T21:07:05.313Z,52.01
2022-11-10T21:09:51.808Z,51.92
2022-11-10T21:12:50.271Z,51.86
2022-11-10T21:15:40.174Z,51.49
2022-11-10T21:18:34.610Z,51.63
2022-11-10T21:21:23.694Z,51.56
2022-11-10T21:24:10.366Z,52.20
2022-11-10T21:27:10.735Z,51.78
2022-11-10T21:29:58.651Z,52.15
2022-11-10T21:32:44.616Z,52.02
2022-11-10T21:35:38.112Z,52.01
2022-11-10T21:38:24.310Z,51.95
2022-11-10T21:41:10.299Z,52.14
2022-11-10T21:43:56.301Z,51.94
2022-11-10T21:46:42.069Z,51.92
2022-11-10T21:49:28.693Z,52.29
2022-11-10T21:52:15.054Z,52.44
2022-11-10T21:55:00.851Z,51.82
2022-11-10T21:57:46.793Z,52.26
2022-11-10T22:00:32.985Z,52.16
2022-11-10T22:03:19.098Z,52.27
2022-11-10T22:06:07.121Z,52.00
2022-11-10T22:08:53.108Z,52.41
2022-11-10T22:11:58.926Z,52.38
2022-11-10T22:15:03.572Z,52.19
2022-11-10T22:18:08.313Z,52.66
2022-11-10T22:20:54.104Z,52.46
2022-11-10T22:23:59.700Z,52.22
2022-11-10T22:26:45.590Z,52.66
2022-11-10T22:29:32.797Z,52.20
2022-11-10T22:32:18.975Z,52.56
2022-11-10T22:35:05.419Z,52.20
2022-11-10T22:37:52.584Z,52.32
2022-11-10T22:40:57.152Z,52.60
2022-11-10T22:44:01.250Z,53.23
2022-11-10T22:46:51.137Z,52.81
2022-11-10T22:49:37.012Z,52.70
2022-11-10T22:52:24.158Z,52.31
2022-11-10T22:55:09.965Z,52.84
2022-11-10T22:57:56.777Z,52.52
2022-11-10T23:00:44.025Z,52.32
2022-11-10T23:03:30.348Z,52.58
2022-11-10T23:06:17.699Z,52.77
2022-11-10T23:09:04.915Z,53.01
2022-11-10T23:11:50.802Z,52.74
2022-11-10T23:14:37.063Z,52.81
2022-11-10T23:17:23.113Z,52.79
2022-11-10T23:20:10.689Z,53.02
2022-11-10T23:22:56.761Z,52.83
2022-11-10T23:25:43.657Z,53.00
2022-11-10T23:28:30.602Z,53.00
2022-11-10T23:31:18.670Z,52.91
2022-11-10T23:34:07.528Z,53.09
2022-11-10T23:36:53.521Z,52.75
2022-11-10T23:39:40.456Z,52.88
2022-11-10T23:42:27.745Z,52.90
2022-11-10T23:45:14.938Z,53.09
2022-11-10T23:48:05.659Z,52.90
2022-11-10T23:50:52.854Z,52.44
2022-11-10T23:53:39.223Z,53.02
2022-11-10T23:56:25.204Z,52.66
2022-11-10T23:59:11.289Z,53.28
